Summary for RAINWISE1

Rainwise Factory, Bar Harbor, ME 04609
Join the PWSweather.com Network
View data in metric units
Latest Conditions
Updated 4:10:00 PM EDT Monday, Sep 22, 2014
Data Currently Today's Max Today's Min Today's Average
Temperature 65.1°F18.4°C 73.0°F22.8°C 61.2°F16.2°C 64.7°F18.2°C
Dew Point 50.3°F10.2°C 69.7°F20.9°C 50.1°F10.1°C 62.2°F16.8°C
Winds 9.0 mph NNW14.5 kmh NNW 11.6 mph NW18.7 kmh NW CalmCalm 3.2 mph5.1 kmh
Wind Gusts 21.0 mph33.8 kmh 23.3 mph37.5 kmh -- 7.1 mph11.4 kmh
Humidity 59% 100% 58% 93%
Pressure 29.75 in1007.5 mb 29.75 in1007.5 mb 29.54 in1000.3 mb 29.61 in1002.7 mb
Precipitation 0.00 in0.0 mm - - 0.00 in0.0 mm
Trends
 
Station Profile
Rainwise FactoryBar Harbor, ME 04609

Lat: 44.39, Lon: -68.208
Elevation: 29
Station Type: Rainwise MK-III

Detailed Summary for Mon, Sep 22, 2014
Hour (EDT) Temperature Dew Point Humidity Winds Wind Gusts Pressure Precip Precip Rate Daily Precip Total
04:10 PM 65.1°F18.4°C 50.3°F10.2°C 59% 9.0 mph NNW14.5 kmh NNW 21.0 mph33.8 kmh 29.75 in1007.5 mb 0.00 in0.0 mm 0.00 in/hr0.0 mm/hr 0.00 in0.0 mm
04:05 PM 65.2°F18.4°C 50.1°F10.1°C 58% 9.4 mph NW15.1 kmh NW 19.3 mph31.1 kmh 29.74 in1007.1 mb 0.00 in0.0 mm 0.00 in/hr0.0 mm/hr 0.00 in0.0 mm
04:00 PM 65.4°F18.6°C 50.3°F10.2°C 58% 9.9 mph NW15.9 kmh NW 20.1 mph32.3 kmh 29.74 in1007.1 mb 0.00 in0.0 mm 0.00 in/hr0.0 mm/hr 0.00 in0.0 mm
03:55 PM 65.8°F18.8°C 50.7°F10.4°C 58% 9.9 mph NW15.9 kmh NW 19.6 mph31.5 kmh 29.74 in1007.1 mb 0.00 in0.0 mm 0.00 in/hr0.0 mm/hr 0.00 in0.0 mm
03:50 PM 66.3°F19.1°C 51.2°F10.7°C 58% 9.6 mph NW15.4 kmh NW 21.5 mph34.6 kmh 29.73 in1006.8 mb 0.00 in0.0 mm 0.00 in/hr0.0 mm/hr 0.00 in0.0 mm
03:45 PM 66.9°F19.4°C 52.2°F11.2°C 59% 10.7 mph NW17.2 kmh NW 23.3 mph37.5 kmh 29.73 in1006.8 mb 0.00 in0.0 mm 0.00 in/hr0.0 mm/hr 0.00 in0.0 mm
03:40 PM 67.6°F19.8°C 53.2°F11.8°C 60% 10.0 mph NW16.1 kmh NW 22.8 mph36.7 kmh 29.72 in1006.4 mb 0.00 in0.0 mm 0.00 in/hr0.0 mm/hr 0.00 in0.0 mm
03:35 PM 68.2°F20.1°C 53.8°F12.1°C 60% 11.2 mph NNW18.0 kmh NNW 23.3 mph37.5 kmh 29.71 in1006.1 mb 0.00 in0.0 mm 0.00 in/hr0.0 mm/hr 0.00 in0.0 mm
03:30 PM 68.5°F20.3°C 54.5°F12.5°C 61% 11.5 mph NW18.5 kmh NW 20.1 mph32.3 kmh 29.71 in1006.1 mb 0.00 in0.0 mm 0.00 in/hr0.0 mm/hr 0.00 in0.0 mm
03:25 PM 68.7°F20.4°C 54.7°F12.6°C 61% 5.9 mph NNW9.5 kmh NNW 14.9 mph24.0 kmh 29.70 in1005.8 mb 0.00 in0.0 mm 0.00 in/hr0.0 mm/hr 0.00 in0.0 mm
03:20 PM 69.0°F20.6°C 54.9°F12.7°C 61% 6.8 mph WNW10.9 kmh WNW 17.6 mph28.3 kmh 29.70 in1005.8 mb 0.00 in0.0 mm 0.00 in/hr0.0 mm/hr 0.00 in0.0 mm
03:15 PM 69.3°F20.7°C 55.3°F12.9°C 61% 8.4 mph NW13.5 kmh NW 18.8 mph30.3 kmh 29.70 in1005.8 mb 0.00 in0.0 mm 0.00 in/hr0.0 mm/hr 0.00 in0.0 mm
03:10 PM 69.6°F20.9°C 55.5°F13.1°C 61% 9.0 mph NW14.5 kmh NW 19.8 mph31.9 kmh 29.70 in1005.8 mb 0.00 in0.0 mm 0.00 in/hr0.0 mm/hr 0.00 in0.0 mm
03:05 PM 69.7°F20.9°C 56.0°F13.3°C 62% 5.4 mph NW8.7 kmh NW 11.4 mph18.3 kmh 29.69 in1005.4 mb 0.00 in0.0 mm 0.00 in/hr0.0 mm/hr 0.00 in0.0 mm
03:00 PM 70.1°F21.2°C 56.4°F13.6°C 62% 7.8 mph NW12.6 kmh NW 18.6 mph29.9 kmh 29.69 in1005.4 mb 0.00 in0.0 mm 0.00 in/hr0.0 mm/hr 0.00 in0.0 mm
02:55 PM 70.5°F21.4°C 57.2°F14.0°C 63% 9.7 mph NNW15.6 kmh NNW 20.1 mph32.3 kmh 29.68 in1005.1 mb 0.00 in0.0 mm 0.00 in/hr0.0 mm/hr 0.00 in0.0 mm
02:50 PM 71.2°F21.8°C 57.9°F14.4°C 63% 6.8 mph NW10.9 kmh NW 19.3 mph31.1 kmh 29.68 in1005.1 mb 0.00 in0.0 mm 0.00 in/hr0.0 mm/hr 0.00 in0.0 mm
02:45 PM 71.5°F21.9°C 58.5°F14.7°C 64% 11.6 mph NW18.7 kmh NW 18.8 mph30.3 kmh 29.67 in1004.7 mb 0.00 in0.0 mm 0.00 in/hr0.0 mm/hr 0.00 in0.0 mm
02:40 PM 71.5°F21.9°C 58.5°F14.7°C 64% 9.2 mph NNW14.8 kmh NNW 19.8 mph31.9 kmh 29.67 in1004.7 mb 0.00 in0.0 mm 0.00 in/hr0.0 mm/hr 0.00 in0.0 mm
02:35 PM 71.6°F22.0°C 59.0°F15.0°C 65% 4.9 mph NW7.9 kmh NW 13.3 mph21.4 kmh 29.67 in1004.7 mb 0.00 in0.0 mm 0.00 in/hr0.0 mm/hr 0.00 in0.0 mm
02:30 PM 72.1°F22.3°C 59.5°F15.3°C 65% 6.4 mph NW10.3 kmh NW 17.6 mph28.3 kmh 29.67 in1004.7 mb 0.00 in0.0 mm 0.00 in/hr0.0 mm/hr 0.00 in0.0 mm
02:25 PM 72.8°F22.7°C 60.9°F16.1°C 67% 5.2 mph NNW8.4 kmh NNW 19.8 mph31.9 kmh 29.66 in1004.4 mb 0.00 in0.0 mm 0.00 in/hr0.0 mm/hr 0.00 in0.0 mm
02:20 PM 73.0°F22.8°C 61.5°F16.4°C 68% 4.9 mph NW7.9 kmh NW 18.6 mph29.9 kmh 29.66 in1004.4 mb 0.00 in0.0 mm 0.00 in/hr0.0 mm/hr 0.00 in0.0 mm
02:15 PM 72.6°F22.6°C 61.8°F16.6°C 70% 4.6 mph WNW7.4 kmh WNW 13.0 mph20.9 kmh 29.66 in1004.4 mb 0.00 in0.0 mm 0.00 in/hr0.0 mm/hr 0.00 in0.0 mm
02:10 PM 72.1°F22.3°C 61.3°F16.3°C 70% 4.0 mph NW6.4 kmh NW 11.4 mph18.3 kmh 29.66 in1004.4 mb 0.00 in0.0 mm 0.00 in/hr0.0 mm/hr 0.00 in0.0 mm
02:05 PM 71.8°F22.1°C 60.7°F15.9°C 69% 4.5 mph NW7.2 kmh NW 13.8 mph22.2 kmh 29.66 in1004.4 mb 0.00 in0.0 mm 0.00 in/hr0.0 mm/hr 0.00 in0.0 mm
02:00 PM 72.2°F22.3°C 61.4°F16.3°C 70% 4.5 mph NW7.2 kmh NW 12.8 mph20.6 kmh 29.65 in1004.1 mb 0.00 in0.0 mm 0.00 in/hr0.0 mm/hr 0.00 in0.0 mm
01:55 PM 72.3°F22.4°C 61.8°F16.6°C 71% 6.6 mph NW10.6 kmh NW 12.8 mph20.6 kmh 29.65 in1004.1 mb 0.00 in0.0 mm 0.00 in/hr0.0 mm/hr 0.00 in0.0 mm
01:50 PM 71.8°F22.1°C 62.5°F16.9°C 74% 6.7 mph NW10.8 kmh NW 17.3 mph27.8 kmh 29.65 in1004.1 mb 0.00 in0.0 mm 0.00 in/hr0.0 mm/hr 0.00 in0.0 mm
01:45 PM 71.1°F21.7°C 62.1°F16.7°C 75% 4.3 mph NW6.9 kmh NW 12.0 mph19.3 kmh 29.65 in1004.1 mb 0.00 in0.0 mm 0.00 in/hr0.0 mm/hr 0.00 in0.0 mm
01:40 PM 70.3°F21.3°C 60.9°F16.1°C 74% 3.1 mph WSW5.0 kmh WSW 7.7 mph12.4 kmh 29.65 in1004.1 mb 0.00 in0.0 mm 0.00 in/hr0.0 mm/hr 0.00 in0.0 mm
01:35 PM 70.3°F21.3°C 60.9°F16.1°C 74% 2.7 mph WNW4.3 kmh WNW 8.5 mph13.7 kmh 29.64 in1003.7 mb 0.00 in0.0 mm 0.00 in/hr0.0 mm/hr 0.00 in0.0 mm
01:30 PM 71.2°F21.8°C 61.8°F16.6°C 74% 5.3 mph NW8.5 kmh NW 10.5 mph16.9 kmh 29.64 in1003.7 mb 0.00 in0.0 mm 0.00 in/hr0.0 mm/hr 0.00 in0.0 mm
01:25 PM 71.9°F22.2°C 63.2°F17.3°C 76% 4.5 mph WNW7.2 kmh WNW 13.8 mph22.2 kmh 29.64 in1003.7 mb 0.00 in0.0 mm 0.00 in/hr0.0 mm/hr 0.00 in0.0 mm
01:20 PM 71.8°F22.1°C 64.6°F18.1°C 80% 3.9 mph NW6.3 kmh NW 11.1 mph17.9 kmh 29.64 in1003.7 mb 0.00 in0.0 mm 0.00 in/hr0.0 mm/hr 0.00 in0.0 mm
01:15 PM 71.3°F21.8°C 65.2°F18.4°C 83% 4.0 mph NW6.4 kmh NW 11.6 mph18.7 kmh 29.63 in1003.4 mb 0.00 in0.0 mm 0.00 in/hr0.0 mm/hr 0.00 in0.0 mm
01:10 PM 71.2°F21.8°C 65.8°F18.8°C 85% 1.9 mph NW3.1 kmh NW 8.5 mph13.7 kmh 29.63 in1003.4 mb 0.00 in0.0 mm 0.00 in/hr0.0 mm/hr 0.00 in0.0 mm
01:05 PM 71.2°F21.8°C 66.5°F19.2°C 87% 4.1 mph NW6.6 kmh NW 14.1 mph22.7 kmh 29.63 in1003.4 mb 0.00 in0.0 mm 0.00 in/hr0.0 mm/hr 0.00 in0.0 mm
01:00 PM 70.9°F21.6°C 66.9°F19.4°C 89% 2.4 mph WNW3.9 kmh WNW 7.5 mph12.1 kmh 29.63 in1003.4 mb 0.00 in0.0 mm 0.00 in/hr0.0 mm/hr 0.00 in0.0 mm
12:55 PM 70.3°F21.3°C 66.7°F19.3°C 90% 7.1 mph SW11.4 kmh SW 12.4 mph20.0 kmh 29.62 in1003.0 mb 0.00 in0.0 mm 0.00 in/hr0.0 mm/hr 0.00 in0.0 mm
12:50 PM 70.0°F21.1°C 66.4°F19.1°C 90% 8.6 mph SW13.8 kmh SW 14.9 mph24.0 kmh 29.62 in1003.0 mb 0.00 in0.0 mm 0.00 in/hr0.0 mm/hr 0.00 in0.0 mm
12:45 PM 70.0°F21.1°C 66.8°F19.3°C 91% 10.1 mph SW16.3 kmh SW 16.8 mph27.0 kmh 29.62 in1003.0 mb 0.00 in0.0 mm 0.00 in/hr0.0 mm/hr 0.00 in0.0 mm
12:40 PM 69.9°F21.1°C 67.0°F19.4°C 92% 9.2 mph SSW14.8 kmh SSW 15.4 mph24.8 kmh 29.63 in1003.4 mb 0.00 in0.0 mm 0.00 in/hr0.0 mm/hr 0.00 in0.0 mm
12:35 PM 69.7°F20.9°C 67.2°F19.6°C 93% 6.9 mph SW11.1 kmh SW 10.6 mph17.1 kmh 29.63 in1003.4 mb 0.00 in0.0 mm 0.00 in/hr0.0 mm/hr 0.00 in0.0 mm
12:30 PM 69.7°F20.9°C 67.2°F19.6°C 93% 5.6 mph WSW9.0 kmh WSW 10.0 mph16.1 kmh 29.63 in1003.4 mb 0.00 in0.0 mm 0.00 in/hr0.0 mm/hr 0.00 in0.0 mm
12:25 PM 69.7°F20.9°C 67.5°F19.7°C 94% 9.6 mph SW15.4 kmh SW 14.9 mph24.0 kmh 29.63 in1003.4 mb 0.00 in0.0 mm 0.00 in/hr0.0 mm/hr 0.00 in0.0 mm
12:20 PM 69.2°F20.7°C 67.4°F19.7°C 95% 6.7 mph SW10.8 kmh SW 12.0 mph19.3 kmh 29.63 in1003.4 mb 0.00 in0.0 mm 0.00 in/hr0.0 mm/hr 0.00 in0.0 mm
12:15 PM 68.8°F20.4°C 67.0°F19.4°C 95% 6.2 mph WSW10.0 kmh WSW 14.0 mph22.5 kmh 29.63 in1003.4 mb 0.00 in0.0 mm 0.00 in/hr0.0 mm/hr 0.00 in0.0 mm
12:10 PM 68.8°F20.4°C 67.0°F19.4°C 95% 9.0 mph SW14.5 kmh SW 14.6 mph23.5 kmh 29.64 in1003.7 mb 0.00 in0.0 mm 0.00 in/hr0.0 mm/hr 0.00 in0.0 mm
12:05 PM 69.0°F20.6°C 67.5°F19.7°C 96% 8.0 mph SW12.9 kmh SW 12.8 mph20.6 kmh 29.63 in1003.4 mb 0.00 in0.0 mm 0.00 in/hr0.0 mm/hr 0.00 in0.0 mm
12:00 PM 69.3°F20.7°C 68.2°F20.1°C 97% 8.4 mph SSW13.5 kmh SSW 14.1 mph22.7 kmh 29.63 in1003.4 mb 0.00 in0.0 mm 0.00 in/hr0.0 mm/hr 0.00 in0.0 mm
11:55 AM 69.7°F20.9°C 68.6°F20.3°C 97% 7.7 mph SSW12.4 kmh SSW 11.9 mph19.2 kmh 29.63 in1003.4 mb 0.00 in0.0 mm 0.00 in/hr0.0 mm/hr 0.00 in0.0 mm
11:50 AM 70.1°F21.2°C 69.0°F20.6°C 97% 6.5 mph SW10.5 kmh SW 10.0 mph16.1 kmh 29.63 in1003.4 mb 0.00 in0.0 mm 0.00 in/hr0.0 mm/hr 0.00 in0.0 mm
11:45 AM 70.3°F21.3°C 69.6°F20.9°C 98% 5.6 mph SSW9.0 kmh SSW 11.0 mph17.7 kmh 29.63 in1003.4 mb 0.00 in0.0 mm 0.00 in/hr0.0 mm/hr 0.00 in0.0 mm
11:40 AM 70.4°F21.3°C 69.7°F20.9°C 98% 5.5 mph SSW8.9 kmh SSW 11.6 mph18.7 kmh 29.63 in1003.4 mb 0.00 in0.0 mm 0.00 in/hr0.0 mm/hr 0.00 in0.0 mm
11:35 AM 70.1°F21.2°C 69.4°F20.8°C 98% 2.9 mph WSW4.7 kmh WSW 8.4 mph13.5 kmh 29.63 in1003.4 mb 0.00 in0.0 mm 0.00 in/hr0.0 mm/hr 0.00 in0.0 mm
11:30 AM 69.7°F20.9°C 69.0°F20.6°C 98% 3.3 mph WNW5.3 kmh WNW 9.8 mph15.8 kmh 29.63 in1003.4 mb 0.00 in0.0 mm 0.00 in/hr0.0 mm/hr 0.00 in0.0 mm
11:25 AM 69.3°F20.7°C 68.6°F20.3°C 98% 4.1 mph SW6.6 kmh SW 12.0 mph19.3 kmh 29.63 in1003.4 mb 0.00 in0.0 mm 0.00 in/hr0.0 mm/hr 0.00 in0.0 mm
11:20 AM 69.1°F20.6°C 68.8°F20.4°C 99% 2.9 mph W4.7 kmh W 9.5 mph15.3 kmh 29.62 in1003.0 mb 0.00 in0.0 mm 0.00 in/hr0.0 mm/hr 0.00 in0.0 mm
11:15 AM 68.9°F20.5°C 68.6°F20.3°C 99% 3.0 mph SW4.8 kmh SW 7.9 mph12.7 kmh 29.62 in1003.0 mb 0.00 in0.0 mm 0.00 in/hr0.0 mm/hr 0.00 in0.0 mm
11:10 AM 68.7°F20.4°C 68.3°F20.2°C 99% 4.7 mph SW7.6 kmh SW 9.3 mph15.0 kmh 29.62 in1003.0 mb 0.00 in0.0 mm 0.00 in/hr0.0 mm/hr 0.00 in0.0 mm
11:05 AM 68.5°F20.3°C 68.5°F20.3°C 100% 5.6 mph WSW9.0 kmh WSW 11.6 mph18.7 kmh 29.62 in1003.0 mb 0.00 in0.0 mm 0.00 in/hr0.0 mm/hr 0.00 in0.0 mm
11:00 AM 68.3°F20.2°C 68.3°F20.2°C 100% 4.7 mph WSW7.6 kmh WSW 9.8 mph15.8 kmh 29.62 in1003.0 mb 0.00 in0.0 mm 0.00 in/hr0.0 mm/hr 0.00 in0.0 mm
10:55 AM 67.9°F19.9°C 67.9°F19.9°C 100% 5.1 mph WNW8.2 kmh WNW 11.0 mph17.7 kmh 29.62 in1003.0 mb 0.00 in0.0 mm 0.00 in/hr0.0 mm/hr 0.00 in0.0 mm
10:50 AM 67.9°F19.9°C 67.9°F19.9°C 100% 5.5 mph SW8.9 kmh SW 8.5 mph13.7 kmh 29.62 in1003.0 mb 0.00 in0.0 mm 0.00 in/hr0.0 mm/hr 0.00 in0.0 mm
10:45 AM 67.7°F19.8°C 67.7°F19.8°C 100% 5.2 mph SW8.4 kmh SW 13.3 mph21.4 kmh 29.62 in1003.0 mb 0.00 in0.0 mm 0.00 in/hr0.0 mm/hr 0.00 in0.0 mm
10:40 AM 67.7°F19.8°C 67.7°F19.8°C 100% 4.2 mph WSW6.8 kmh WSW 8.9 mph14.3 kmh 29.62 in1003.0 mb 0.00 in0.0 mm 0.00 in/hr0.0 mm/hr 0.00 in0.0 mm
10:35 AM 67.6°F19.8°C 67.6°F19.8°C 100% 5.2 mph SW8.4 kmh SW 9.5 mph15.3 kmh 29.62 in1003.0 mb 0.00 in0.0 mm 0.00 in/hr0.0 mm/hr 0.00 in0.0 mm
10:30 AM 67.1°F19.5°C 67.1°F19.5°C 100% 2.5 mph NW4.0 kmh NW 8.4 mph13.5 kmh 29.62 in1003.0 mb 0.00 in0.0 mm 0.00 in/hr0.0 mm/hr 0.00 in0.0 mm
10:25 AM 66.9°F19.4°C 66.9°F19.4°C 100% 4.2 mph SW6.8 kmh SW 9.5 mph15.3 kmh 29.63 in1003.4 mb 0.00 in0.0 mm 0.00 in/hr0.0 mm/hr 0.00 in0.0 mm
10:20 AM 67.2°F19.6°C 67.2°F19.6°C 100% 4.0 mph SW6.4 kmh SW 8.1 mph13.0 kmh 29.62 in1003.0 mb 0.00 in0.0 mm 0.00 in/hr0.0 mm/hr 0.00 in0.0 mm
10:15 AM 67.2°F19.6°C 67.2°F19.6°C 100% 3.1 mph WSW5.0 kmh WSW 9.5 mph15.3 kmh 29.63 in1003.4 mb 0.00 in0.0 mm 0.00 in/hr0.0 mm/hr 0.00 in0.0 mm
10:10 AM 66.8°F19.3°C 66.8°F19.3°C 100% 2.4 mph SW3.9 kmh SW 7.5 mph12.1 kmh 29.63 in1003.4 mb 0.00 in0.0 mm 0.00 in/hr0.0 mm/hr 0.00 in0.0 mm
10:05 AM 66.5°F19.2°C 66.5°F19.2°C 100% 2.5 mph SW4.0 kmh SW 4.9 mph7.9 kmh 29.62 in1003.0 mb 0.00 in0.0 mm 0.00 in/hr0.0 mm/hr 0.00 in0.0 mm
10:00 AM 66.2°F19.0°C 66.2°F19.0°C 100% 2.4 mph WSW3.9 kmh WSW 8.1 mph13.0 kmh 29.62 in1003.0 mb 0.00 in0.0 mm 0.00 in/hr0.0 mm/hr 0.00 in0.0 mm
09:55 AM 65.8°F18.8°C 65.8°F18.8°C 100% 1.4 mph WSW2.3 kmh WSW 4.9 mph7.9 kmh 29.62 in1003.0 mb 0.00 in0.0 mm 0.00 in/hr0.0 mm/hr 0.00 in0.0 mm
09:50 AM 65.2°F18.4°C 65.2°F18.4°C 100% 1.4 mph WSW2.3 kmh WSW 5.7 mph9.2 kmh 29.62 in1003.0 mb 0.00 in0.0 mm 0.00 in/hr0.0 mm/hr 0.00 in0.0 mm
09:45 AM 64.7°F18.2°C 64.7°F18.2°C 100% 1.4 mph WSW2.3 kmh WSW 4.7 mph7.6 kmh 29.62 in1003.0 mb 0.00 in0.0 mm 0.00 in/hr0.0 mm/hr 0.00 in0.0 mm
09:40 AM 64.2°F17.9°C 64.2°F17.9°C 100% 2.2 mph WSW3.5 kmh WSW 5.4 mph8.7 kmh 29.62 in1003.0 mb 0.00 in0.0 mm 0.00 in/hr0.0 mm/hr 0.00 in0.0 mm
09:35 AM 63.9°F17.7°C 63.9°F17.7°C 100% 2.7 mph WSW4.3 kmh WSW 7.5 mph12.1 kmh 29.62 in1003.0 mb 0.00 in0.0 mm 0.00 in/hr0.0 mm/hr 0.00 in0.0 mm
09:30 AM 63.7°F17.6°C 63.7°F17.6°C 100% 2.8 mph WSW4.5 kmh WSW 7.9 mph12.7 kmh 29.62 in1003.0 mb 0.00 in0.0 mm 0.00 in/hr0.0 mm/hr 0.00 in0.0 mm
09:25 AM 63.6°F17.6°C 63.6°F17.6°C 100% 3.6 mph WSW5.8 kmh WSW 8.4 mph13.5 kmh 29.62 in1003.0 mb 0.00 in0.0 mm 0.00 in/hr0.0 mm/hr 0.00 in0.0 mm
09:20 AM 63.3°F17.4°C 63.3°F17.4°C 100% 2.3 mph SW3.7 kmh SW 8.9 mph14.3 kmh 29.62 in1003.0 mb 0.00 in0.0 mm 0.00 in/hr0.0 mm/hr 0.00 in0.0 mm
09:15 AM 63.0°F17.2°C 63.0°F17.2°C 100% 2.8 mph WSW4.5 kmh WSW 6.5 mph10.5 kmh 29.62 in1003.0 mb 0.00 in0.0 mm 0.00 in/hr0.0 mm/hr 0.00 in0.0 mm
09:10 AM 62.6°F17.0°C 62.6°F17.0°C 100% 2.0 mph WSW3.2 kmh WSW 6.7 mph10.8 kmh 29.62 in1003.0 mb 0.00 in0.0 mm 0.00 in/hr0.0 mm/hr 0.00 in0.0 mm
09:05 AM 62.4°F16.9°C 62.4°F16.9°C 100% 3.8 mph WSW6.1 kmh WSW 10.5 mph16.9 kmh 29.62 in1003.0 mb 0.00 in0.0 mm 0.00 in/hr0.0 mm/hr 0.00 in0.0 mm
09:00 AM 62.2°F16.8°C 62.2°F16.8°C 100% 2.6 mph WSW4.2 kmh WSW 6.2 mph10.0 kmh 29.62 in1003.0 mb 0.00 in0.0 mm 0.00 in/hr0.0 mm/hr 0.00 in0.0 mm
08:55 AM 62.1°F16.7°C 62.1°F16.7°C 100% 1.8 mph SW2.9 kmh SW 5.4 mph8.7 kmh 29.62 in1003.0 mb 0.00 in0.0 mm 0.00 in/hr0.0 mm/hr 0.00 in0.0 mm
08:50 AM 61.8°F16.6°C 61.8°F16.6°C 100% 1.3 mph WSW2.1 kmh WSW 4.7 mph7.6 kmh 29.62 in1003.0 mb 0.00 in0.0 mm 0.00 in/hr0.0 mm/hr 0.00 in0.0 mm
08:45 AM 61.5°F16.4°C 61.5°F16.4°C 100% 0.3 mph W0.5 kmh W 1.8 mph2.9 kmh 29.62 in1003.0 mb 0.00 in0.0 mm 0.00 in/hr0.0 mm/hr 0.00 in0.0 mm
08:40 AM 61.2°F16.2°C 61.2°F16.2°C 100% 1.1 mph SSW1.8 kmh SSW 4.4 mph7.1 kmh 29.62 in1003.0 mb 0.00 in0.0 mm 0.00 in/hr0.0 mm/hr 0.00 in0.0 mm
08:35 AM 61.2°F16.2°C 61.2°F16.2°C 100% 3.4 mph SW5.5 kmh SW 6.2 mph10.0 kmh 29.62 in1003.0 mb 0.00 in0.0 mm 0.00 in/hr0.0 mm/hr 0.00 in0.0 mm
08:30 AM 61.2°F16.2°C 61.2°F16.2°C 100% 4.7 mph SSW7.6 kmh SSW 8.4 mph13.5 kmh 29.61 in1002.7 mb 0.00 in0.0 mm 0.00 in/hr0.0 mm/hr 0.00 in0.0 mm
08:25 AM 61.5°F16.4°C 61.5°F16.4°C 100% 5.3 mph SW8.5 kmh SW 8.9 mph14.3 kmh 29.61 in1002.7 mb 0.00 in0.0 mm 0.00 in/hr0.0 mm/hr 0.00 in0.0 mm
08:20 AM 61.5°F16.4°C 61.5°F16.4°C 100% 4.7 mph SW7.6 kmh SW 9.8 mph15.8 kmh 29.61 in1002.7 mb 0.00 in0.0 mm 0.00 in/hr0.0 mm/hr 0.00 in0.0 mm
08:15 AM 61.4°F16.3°C 61.4°F16.3°C 100% 3.4 mph WSW5.5 kmh WSW 8.4 mph13.5 kmh 29.61 in1002.7 mb 0.00 in0.0 mm 0.00 in/hr0.0 mm/hr 0.00 in0.0 mm
08:10 AM 61.2°F16.2°C 61.2°F16.2°C 100% 3.6 mph WSW5.8 kmh WSW 6.7 mph10.8 kmh 29.61 in1002.7 mb 0.00 in0.0 mm 0.00 in/hr0.0 mm/hr 0.00 in0.0 mm
08:05 AM 61.4°F16.3°C 61.4°F16.3°C 100% 5.0 mph SW8.0 kmh SW 8.9 mph14.3 kmh 29.60 in1002.4 mb 0.00 in0.0 mm 0.00 in/hr0.0 mm/hr 0.00 in0.0 mm
08:00 AM 61.5°F16.4°C 61.5°F16.4°C 100% 5.5 mph SW8.9 kmh SW 10.3 mph16.6 kmh 29.60 in1002.4 mb 0.00 in0.0 mm 0.00 in/hr0.0 mm/hr 0.00 in0.0 mm
07:55 AM 61.6°F16.4°C 61.6°F16.4°C 100% 5.0 mph SSW8.0 kmh SSW 7.9 mph12.7 kmh 29.59 in1002.0 mb 0.00 in0.0 mm 0.00 in/hr0.0 mm/hr 0.00 in0.0 mm
07:50 AM 61.7°F16.5°C 61.7°F16.5°C 100% 5.7 mph SSW9.2 kmh SSW 9.3 mph15.0 kmh 29.58 in1001.7 mb 0.00 in0.0 mm 0.00 in/hr0.0 mm/hr 0.00 in0.0 mm
07:45 AM 61.7°F16.5°C 61.7°F16.5°C 100% 5.0 mph SSW8.0 kmh SSW 7.5 mph12.1 kmh 29.58 in1001.7 mb 0.00 in0.0 mm 0.00 in/hr0.0 mm/hr 0.00 in0.0 mm
07:40 AM 61.7°F16.5°C 61.7°F16.5°C 100% 4.8 mph SW7.7 kmh SW 7.2 mph11.6 kmh 29.58 in1001.7 mb 0.00 in0.0 mm 0.00 in/hr0.0 mm/hr 0.00 in0.0 mm
07:35 AM 61.7°F16.5°C 61.7°F16.5°C 100% 3.8 mph SSW6.1 kmh SSW 6.7 mph10.8 kmh 29.59 in1002.0 mb 0.00 in0.0 mm 0.00 in/hr0.0 mm/hr 0.00 in0.0 mm
07:30 AM 61.7°F16.5°C 61.7°F16.5°C 100% 4.6 mph SSW7.4 kmh SSW 7.5 mph12.1 kmh 29.59 in1002.0 mb 0.00 in0.0 mm 0.00 in/hr0.0 mm/hr 0.00 in0.0 mm
07:25 AM 61.8°F16.6°C 61.8°F16.6°C 100% 4.1 mph SW6.6 kmh SW 7.2 mph11.6 kmh 29.59 in1002.0 mb 0.00 in0.0 mm 0.00 in/hr0.0 mm/hr 0.00 in0.0 mm
07:20 AM 61.9°F16.6°C 61.9°F16.6°C 100% 4.3 mph SSW6.9 kmh SSW 6.7 mph10.8 kmh 29.59 in1002.0 mb 0.00 in0.0 mm 0.00 in/hr0.0 mm/hr 0.00 in0.0 mm
07:15 AM 61.8°F16.6°C 61.8°F16.6°C 100% 3.8 mph SSW6.1 kmh SSW 6.5 mph10.5 kmh 29.59 in1002.0 mb 0.00 in0.0 mm 0.00 in/hr0.0 mm/hr 0.00 in0.0 mm
07:10 AM 61.7°F16.5°C 61.7°F16.5°C 100% 2.8 mph WSW4.5 kmh WSW 6.0 mph9.7 kmh 29.59 in1002.0 mb 0.00 in0.0 mm 0.00 in/hr0.0 mm/hr 0.00 in0.0 mm
07:05 AM 61.7°F16.5°C 61.7°F16.5°C 100% 2.2 mph SSW3.5 kmh SSW 4.0 mph6.4 kmh 29.59 in1002.0 mb 0.00 in0.0 mm 0.00 in/hr0.0 mm/hr 0.00 in0.0 mm
07:00 AM 61.6°F16.4°C 61.6°F16.4°C 100% 3.1 mph SSW5.0 kmh SSW 6.2 mph10.0 kmh 29.59 in1002.0 mb 0.00 in0.0 mm 0.00 in/hr0.0 mm/hr 0.00 in0.0 mm
06:55 AM 61.5°F16.4°C 61.5°F16.4°C 100% 3.7 mph SSW6.0 kmh SSW 7.5 mph12.1 kmh 29.60 in1002.4 mb 0.00 in0.0 mm 0.00 in/hr0.0 mm/hr 0.00 in0.0 mm
06:50 AM 61.5°F16.4°C 61.5°F16.4°C 100% 2.5 mph SW4.0 kmh SW 5.0 mph8.0 kmh 29.60 in1002.4 mb 0.00 in0.0 mm 0.00 in/hr0.0 mm/hr 0.00 in0.0 mm
06:45 AM 61.6°F16.4°C 61.6°F16.4°C 100% 3.4 mph SSW5.5 kmh SSW 5.0 mph8.0 kmh 29.59 in1002.0 mb 0.00 in0.0 mm 0.00 in/hr0.0 mm/hr 0.00 in0.0 mm
06:40 AM 61.6°F16.4°C 61.6°F16.4°C 100% 2.6 mph WSW4.2 kmh WSW 5.0 mph8.0 kmh 29.59 in1002.0 mb 0.00 in0.0 mm 0.00 in/hr0.0 mm/hr 0.00 in0.0 mm
06:35 AM 61.7°F16.5°C 61.7°F16.5°C 100% 1.7 mph SSW2.7 kmh SSW 4.0 mph6.4 kmh 29.58 in1001.7 mb 0.00 in0.0 mm 0.00 in/hr0.0 mm/hr 0.00 in0.0 mm
06:30 AM 61.7°F16.5°C 61.7°F16.5°C 100% 1.7 mph WSW2.7 kmh WSW 4.0 mph6.4 kmh 29.58 in1001.7 mb 0.00 in0.0 mm 0.00 in/hr0.0 mm/hr 0.00 in0.0 mm
06:25 AM 61.7°F16.5°C 61.7°F16.5°C 100% 2.4 mph SW3.9 kmh SW 4.4 mph7.1 kmh 29.58 in1001.7 mb 0.00 in0.0 mm 0.00 in/hr0.0 mm/hr 0.00 in0.0 mm
06:20 AM 61.7°F16.5°C 61.7°F16.5°C 100% 1.6 mph WSW2.6 kmh WSW 3.5 mph5.6 kmh 29.58 in1001.7 mb 0.00 in0.0 mm 0.00 in/hr0.0 mm/hr 0.00 in0.0 mm
06:15 AM 61.7°F16.5°C 61.7°F16.5°C 100% 2.4 mph WSW3.9 kmh WSW 4.7 mph7.6 kmh 29.57 in1001.4 mb 0.00 in0.0 mm 0.00 in/hr0.0 mm/hr 0.00 in0.0 mm
06:10 AM 61.7°F16.5°C 61.7°F16.5°C 100% 1.9 mph SSW3.1 kmh SSW 3.2 mph5.1 kmh 29.57 in1001.4 mb 0.00 in0.0 mm 0.00 in/hr0.0 mm/hr 0.00 in0.0 mm
06:05 AM 61.7°F16.5°C 61.7°F16.5°C 100% 1.7 mph SSW2.7 kmh SSW 4.0 mph6.4 kmh 29.57 in1001.4 mb 0.00 in0.0 mm 0.00 in/hr0.0 mm/hr 0.00 in0.0 mm
06:00 AM 61.7°F16.5°C 61.7°F16.5°C 100% 2.0 mph SSW3.2 kmh SSW 3.5 mph5.6 kmh 29.57 in1001.4 mb 0.00 in0.0 mm 0.00 in/hr0.0 mm/hr 0.00 in0.0 mm
05:55 AM 61.7°F16.5°C 61.7°F16.5°C 100% 2.2 mph SSW3.5 kmh SSW 4.0 mph6.4 kmh 29.57 in1001.4 mb 0.00 in0.0 mm 0.00 in/hr0.0 mm/hr 0.00 in0.0 mm
05:50 AM 61.7°F16.5°C 61.7°F16.5°C 100% 0.3 mph WSW0.5 kmh WSW 1.8 mph2.9 kmh 29.57 in1001.4 mb 0.00 in0.0 mm 0.00 in/hr0.0 mm/hr 0.00 in0.0 mm
05:45 AM 61.7°F16.5°C 61.7°F16.5°C 100% 1.1 mph WSW1.8 kmh WSW 2.7 mph4.3 kmh 29.57 in1001.4 mb 0.00 in0.0 mm 0.00 in/hr0.0 mm/hr 0.00 in0.0 mm
05:40 AM 61.7°F16.5°C 61.7°F16.5°C 100% Calm Calm -- 29.57 in1001.4 mb 0.00 in0.0 mm 0.00 in/hr0.0 mm/hr 0.00 in0.0 mm
05:35 AM 61.7°F16.5°C 61.7°F16.5°C 100% Calm Calm 1.1 mph1.8 kmh 29.57 in1001.4 mb 0.00 in0.0 mm 0.00 in/hr0.0 mm/hr 0.00 in0.0 mm
05:30 AM 61.7°F16.5°C 61.7°F16.5°C 100% 0.4 mph WSW0.6 kmh WSW 2.2 mph3.5 kmh 29.57 in1001.4 mb 0.00 in0.0 mm 0.00 in/hr0.0 mm/hr 0.00 in0.0 mm
05:25 AM 61.7°F16.5°C 61.7°F16.5°C 100% 1.0 mph WSW1.6 kmh WSW 2.6 mph4.2 kmh 29.57 in1001.4 mb 0.00 in0.0 mm 0.00 in/hr0.0 mm/hr 0.00 in0.0 mm
05:20 AM 61.7°F16.5°C 61.7°F16.5°C 100% 0.2 mph WSW0.3 kmh WSW 1.8 mph2.9 kmh 29.56 in1001.0 mb 0.00 in0.0 mm 0.00 in/hr0.0 mm/hr 0.00 in0.0 mm
05:15 AM 61.7°F16.5°C 61.7°F16.5°C 100% 0.1 mph WSW0.2 kmh WSW 1.8 mph2.9 kmh 29.57 in1001.4 mb 0.00 in0.0 mm 0.00 in/hr0.0 mm/hr 0.00 in0.0 mm
05:10 AM 61.7°F16.5°C 61.7°F16.5°C 100% 0.4 mph WSW0.6 kmh WSW 2.7 mph4.3 kmh 29.56 in1001.0 mb 0.00 in0.0 mm 0.00 in/hr0.0 mm/hr 0.00 in0.0 mm
05:05 AM 61.7°F16.5°C 61.7°F16.5°C 100% Calm Calm -- 29.56 in1001.0 mb 0.00 in0.0 mm 0.00 in/hr0.0 mm/hr 0.00 in0.0 mm
05:00 AM 61.7°F16.5°C 61.7°F16.5°C 100% Calm Calm -- 29.56 in1001.0 mb 0.00 in0.0 mm 0.00 in/hr0.0 mm/hr 0.00 in0.0 mm
04:55 AM 61.7°F16.5°C 61.7°F16.5°C 100% 0.1 mph WNW0.2 kmh WNW 1.6 mph2.6 kmh 29.56 in1001.0 mb 0.00 in0.0 mm 0.00 in/hr0.0 mm/hr 0.00 in0.0 mm
04:50 AM 61.7°F16.5°C 61.7°F16.5°C 100% 0.1 mph WNW0.2 kmh WNW 1.3 mph2.1 kmh 29.55 in1000.7 mb 0.00 in0.0 mm 0.00 in/hr0.0 mm/hr 0.00 in0.0 mm
04:45 AM 61.7°F16.5°C 61.7°F16.5°C 100% Calm Calm -- 29.56 in1001.0 mb 0.00 in0.0 mm 0.00 in/hr0.0 mm/hr 0.00 in0.0 mm
04:40 AM 61.6°F16.4°C 61.6°F16.4°C 100% 0.2 mph WNW0.3 kmh WNW 1.8 mph2.9 kmh 29.55 in1000.7 mb 0.00 in0.0 mm 0.00 in/hr0.0 mm/hr 0.00 in0.0 mm
04:35 AM 61.6°F16.4°C 61.6°F16.4°C 100% 0.0 mph SSW0.0 kmh SSW 1.3 mph2.1 kmh 29.55 in1000.7 mb 0.00 in0.0 mm 0.00 in/hr0.0 mm/hr 0.00 in0.0 mm
04:30 AM 61.5°F16.4°C 61.5°F16.4°C 100% 1.2 mph SSW1.9 kmh SSW 2.6 mph4.2 kmh 29.55 in1000.7 mb 0.00 in0.0 mm 0.00 in/hr0.0 mm/hr 0.00 in0.0 mm
04:25 AM 61.4°F16.3°C 61.4°F16.3°C 100% Calm Calm -- 29.54 in1000.3 mb 0.00 in0.0 mm 0.00 in/hr0.0 mm/hr 0.00 in0.0 mm
04:20 AM 61.4°F16.3°C 61.4°F16.3°C 100% 1.4 mph SSW2.3 kmh SSW 2.7 mph4.3 kmh 29.54 in1000.3 mb 0.00 in0.0 mm 0.00 in/hr0.0 mm/hr 0.00 in0.0 mm
04:15 AM 61.5°F16.4°C 61.5°F16.4°C 100% Calm Calm -- 29.54 in1000.3 mb 0.00 in0.0 mm 0.00 in/hr0.0 mm/hr 0.00 in0.0 mm
04:10 AM 61.6°F16.4°C 61.6°F16.4°C 100% Calm Calm -- 29.54 in1000.3 mb 0.00 in0.0 mm 0.00 in/hr0.0 mm/hr 0.00 in0.0 mm
04:05 AM 61.7°F16.5°C 61.7°F16.5°C 100% Calm Calm -- 29.54 in1000.3 mb 0.00 in0.0 mm 0.00 in/hr0.0 mm/hr 0.00 in0.0 mm
04:00 AM 61.7°F16.5°C 61.7°F16.5°C 100% Calm Calm -- 29.54 in1000.3 mb 0.00 in0.0 mm 0.00 in/hr0.0 mm/hr 0.00 in0.0 mm
03:55 AM 61.7°F16.5°C 61.7°F16.5°C 100% Calm Calm -- 29.54 in1000.3 mb 0.00 in0.0 mm 0.00 in/hr0.0 mm/hr 0.00 in0.0 mm
03:50 AM 61.7°F16.5°C 61.7°F16.5°C 100% Calm Calm -- 29.54 in1000.3 mb 0.00 in0.0 mm 0.00 in/hr0.0 mm/hr 0.00 in0.0 mm
03:45 AM 61.7°F16.5°C 61.7°F16.5°C 100% Calm Calm -- 29.54 in1000.3 mb 0.00 in0.0 mm 0.00 in/hr0.0 mm/hr 0.00 in0.0 mm
03:40 AM 61.7°F16.5°C 61.7°F16.5°C 100% 0.0 mph NE0.0 kmh NE 1.3 mph2.1 kmh 29.54 in1000.3 mb 0.00 in0.0 mm 0.00 in/hr0.0 mm/hr 0.00 in0.0 mm
03:35 AM 61.7°F16.5°C 61.7°F16.5°C 100% 0.1 mph NE0.2 kmh NE 1.3 mph2.1 kmh 29.54 in1000.3 mb 0.00 in0.0 mm 0.00 in/hr0.0 mm/hr 0.00 in0.0 mm
03:30 AM 61.7°F16.5°C 61.7°F16.5°C 100% Calm Calm -- 29.54 in1000.3 mb 0.00 in0.0 mm 0.00 in/hr0.0 mm/hr 0.00 in0.0 mm
03:25 AM 61.7°F16.5°C 61.7°F16.5°C 100% Calm Calm -- 29.54 in1000.3 mb 0.00 in0.0 mm 0.00 in/hr0.0 mm/hr 0.00 in0.0 mm
03:20 AM 61.7°F16.5°C 61.7°F16.5°C 100% Calm Calm -- 29.54 in1000.3 mb 0.00 in0.0 mm 0.00 in/hr0.0 mm/hr 0.00 in0.0 mm
03:15 AM 61.7°F16.5°C 61.7°F16.5°C 100% Calm Calm -- 29.55 in1000.7 mb 0.00 in0.0 mm 0.00 in/hr0.0 mm/hr 0.00 in0.0 mm
03:10 AM 61.8°F16.6°C 61.8°F16.6°C 100% Calm Calm -- 29.55 in1000.7 mb 0.00 in0.0 mm 0.00 in/hr0.0 mm/hr 0.00 in0.0 mm
03:05 AM 61.9°F16.6°C 61.9°F16.6°C 100% Calm Calm -- 29.56 in1001.0 mb 0.00 in0.0 mm 0.00 in/hr0.0 mm/hr 0.00 in0.0 mm
03:00 AM 61.7°F16.5°C 61.7°F16.5°C 100% Calm Calm -- 29.56 in1001.0 mb 0.00 in0.0 mm 0.00 in/hr0.0 mm/hr 0.00 in0.0 mm
02:55 AM 61.7°F16.5°C 61.7°F16.5°C 100% Calm Calm -- 29.56 in1001.0 mb 0.00 in0.0 mm 0.00 in/hr0.0 mm/hr 0.00 in0.0 mm
02:50 AM 61.8°F16.6°C 61.8°F16.6°C 100% Calm Calm -- 29.56 in1001.0 mb 0.00 in0.0 mm 0.00 in/hr0.0 mm/hr 0.00 in0.0 mm
02:45 AM 61.9°F16.6°C 61.9°F16.6°C 100% Calm Calm -- 29.56 in1001.0 mb 0.00 in0.0 mm 0.00 in/hr0.0 mm/hr 0.00 in0.0 mm
02:40 AM 61.8°F16.6°C 61.8°F16.6°C 100% Calm Calm -- 29.56 in1001.0 mb 0.00 in0.0 mm 0.00 in/hr0.0 mm/hr 0.00 in0.0 mm
02:35 AM 61.7°F16.5°C 61.7°F16.5°C 100% Calm Calm -- 29.56 in1001.0 mb 0.00 in0.0 mm 0.00 in/hr0.0 mm/hr 0.00 in0.0 mm
02:30 AM 61.7°F16.5°C 61.7°F16.5°C 100% Calm Calm -- 29.56 in1001.0 mb 0.00 in0.0 mm 0.00 in/hr0.0 mm/hr 0.00 in0.0 mm
02:25 AM 61.7°F16.5°C 61.7°F16.5°C 100% Calm Calm -- 29.56 in1001.0 mb 0.00 in0.0 mm 0.00 in/hr0.0 mm/hr 0.00 in0.0 mm
02:20 AM 61.7°F16.5°C 61.7°F16.5°C 100% Calm Calm -- 29.56 in1001.0 mb 0.00 in0.0 mm 0.00 in/hr0.0 mm/hr 0.00 in0.0 mm
02:15 AM 61.7°F16.5°C 61.7°F16.5°C 100% Calm Calm -- 29.57 in1001.4 mb 0.00 in0.0 mm 0.00 in/hr0.0 mm/hr 0.00 in0.0 mm
02:10 AM 61.7°F16.5°C 61.7°F16.5°C 100% Calm Calm -- 29.57 in1001.4 mb 0.00 in0.0 mm 0.00 in/hr0.0 mm/hr 0.00 in0.0 mm
02:05 AM 61.7°F16.5°C 61.7°F16.5°C 100% Calm Calm -- 29.57 in1001.4 mb 0.00 in0.0 mm 0.00 in/hr0.0 mm/hr 0.00 in0.0 mm
02:00 AM 61.6°F16.4°C 61.6°F16.4°C 100% Calm Calm -- 29.57 in1001.4 mb 0.00 in0.0 mm 0.00 in/hr0.0 mm/hr 0.00 in0.0 mm
01:55 AM 61.6°F16.4°C 61.6°F16.4°C 100% Calm Calm -- 29.58 in1001.7 mb 0.00 in0.0 mm 0.00 in/hr0.0 mm/hr 0.00 in0.0 mm
01:50 AM 61.6°F16.4°C 61.6°F16.4°C 100% 0.0 mph NE0.0 kmh NE 1.1 mph1.8 kmh 29.58 in1001.7 mb 0.00 in0.0 mm 0.00 in/hr0.0 mm/hr 0.00 in0.0 mm
01:45 AM 61.6°F16.4°C 61.6°F16.4°C 100% Calm Calm -- 29.58 in1001.7 mb 0.00 in0.0 mm 0.00 in/hr0.0 mm/hr 0.00 in0.0 mm
01:40 AM 61.6°F16.4°C 61.6°F16.4°C 100% Calm Calm -- 29.58 in1001.7 mb 0.00 in0.0 mm 0.00 in/hr0.0 mm/hr 0.00 in0.0 mm
01:35 AM 61.6°F16.4°C 61.6°F16.4°C 100% 0.2 mph NE0.3 kmh NE 1.6 mph2.6 kmh 29.59 in1002.0 mb 0.00 in0.0 mm 0.00 in/hr0.0 mm/hr 0.00 in0.0 mm
01:30 AM 61.5°F16.4°C 61.5°F16.4°C 100% Calm Calm -- 29.59 in1002.0 mb 0.00 in0.0 mm 0.00 in/hr0.0 mm/hr 0.00 in0.0 mm
01:25 AM 61.5°F16.4°C 61.5°F16.4°C 100% Calm Calm -- 29.59 in1002.0 mb 0.00 in0.0 mm 0.00 in/hr0.0 mm/hr 0.00 in0.0 mm
01:20 AM 61.5°F16.4°C 61.5°F16.4°C 100% Calm Calm -- 29.59 in1002.0 mb 0.00 in0.0 mm 0.00 in/hr0.0 mm/hr 0.00 in0.0 mm
01:15 AM 61.5°F16.4°C 61.5°F16.4°C 100% Calm Calm -- 29.59 in1002.0 mb 0.00 in0.0 mm 0.00 in/hr0.0 mm/hr 0.00 in0.0 mm
01:10 AM 61.6°F16.4°C 61.6°F16.4°C 100% Calm Calm -- 29.60 in1002.4 mb 0.00 in0.0 mm 0.00 in/hr0.0 mm/hr 0.00 in0.0 mm
01:05 AM 61.6°F16.4°C 61.6°F16.4°C 100% 0.2 mph NE0.3 kmh NE 1.6 mph2.6 kmh 29.60 in1002.4 mb 0.00 in0.0 mm 0.00 in/hr0.0 mm/hr 0.00 in0.0 mm
01:00 AM 61.6°F16.4°C 61.6°F16.4°C 100% 0.2 mph NE0.3 kmh NE 1.3 mph2.1 kmh 29.61 in1002.7 mb 0.00 in0.0 mm 0.00 in/hr0.0 mm/hr 0.00 in0.0 mm
12:55 AM 61.4°F16.3°C 61.4°F16.3°C 100% 0.6 mph NE1.0 kmh NE 2.1 mph3.4 kmh 29.61 in1002.7 mb 0.00 in0.0 mm 0.00 in/hr0.0 mm/hr 0.00 in0.0 mm
12:50 AM 61.2°F16.2°C 61.2°F16.2°C 100% 0.4 mph NNW0.6 kmh NNW 1.6 mph2.6 kmh 29.61 in1002.7 mb 0.00 in0.0 mm 0.00 in/hr0.0 mm/hr 0.00 in0.0 mm
12:45 AM 61.3°F16.3°C 61.3°F16.3°C 100% Calm Calm -- 29.62 in1003.0 mb 0.00 in0.0 mm 0.00 in/hr0.0 mm/hr 0.00 in0.0 mm
12:40 AM 61.2°F16.2°C 61.2°F16.2°C 100% 1.9 mph NNW3.1 kmh NNW 3.5 mph5.6 kmh 29.62 in1003.0 mb 0.00 in0.0 mm 0.00 in/hr0.0 mm/hr 0.00 in0.0 mm
12:35 AM 61.2°F16.2°C 61.2°F16.2°C 100% 2.6 mph N4.2 kmh N 4.0 mph6.4 kmh 29.62 in1003.0 mb 0.00 in0.0 mm 0.00 in/hr0.0 mm/hr 0.00 in0.0 mm
12:30 AM 61.2°F16.2°C 61.2°F16.2°C 100% 1.8 mph NNW2.9 kmh NNW 4.0 mph6.4 kmh 29.62 in1003.0 mb 0.00 in0.0 mm 0.00 in/hr0.0 mm/hr 0.00 in0.0 mm
12:25 AM 61.2°F16.2°C 61.2°F16.2°C 100% Calm Calm -- 29.62 in1003.0 mb 0.00 in0.0 mm 0.00 in/hr0.0 mm/hr 0.00 in0.0 mm
12:20 AM 61.2°F16.2°C 61.2°F16.2°C 100% Calm Calm -- 29.63 in1003.4 mb 0.00 in0.0 mm 0.00 in/hr0.0 mm/hr 0.00 in0.0 mm
12:15 AM 61.2°F16.2°C 61.2°F16.2°C 100% Calm Calm -- 29.63 in1003.4 mb 0.00 in0.0 mm 0.00 in/hr0.0 mm/hr 0.00 in0.0 mm
12:10 AM 61.2°F16.2°C 61.2°F16.2°C 100% 0.1 mph ESE0.2 kmh ESE 1.6 mph2.6 kmh 29.64 in1003.7 mb 0.00 in0.0 mm 0.00 in/hr0.0 mm/hr 0.00 in0.0 mm
12:05 AM 61.2°F16.2°C 61.2°F16.2°C 100% 0.0 mph ESE0.0 kmh ESE 1.1 mph1.8 kmh 29.64 in1003.7 mb 0.00 in0.0 mm 0.00 in/hr0.0 mm/hr 0.00 in0.0 mm
12:00 AM 61.2°F16.2°C 61.2°F16.2°C 100% 0.4 mph ESE0.6 kmh ESE 3.2 mph5.1 kmh 29.64 in1003.7 mb 0.00 in0.0 mm 0.00 in/hr0.0 mm/hr 0.23 in5.8 mm
WeatherForYou.com, LLC is not responsible for any damages or problems caused by this service. Current weather conditions are obtained from the closest station including government and personal stations which may have varying degrees of accuracy. Weather forecasts are derived from the NOAA NDFD and obtained through HAMweather's Aeris Weather API. Like all things, this site belongs to Jesus Christ... He just trusts me to maintain it. If you have any questions or comments email webmaster@weatherforyou.com

Copyright © 2014, WeatherForYou.com LLC. All rights reserved.